Capt E. Frank Thompson — WDG2784 — position and weather

sailwx.info

Track history (hours):
 
Tides and Currents Weather Stations Pressure Air Temp Water Temp Dewpoint Dewpoint Depression Visibility Wind Speed Wind Dir Waves Ship Positions

Capt E. Frank Thompson

Owner: Maine Dept. of Transportation/Ferry Service, Rockland, ME. More information available from US FCC via Universal Licensing System and Coast Guard Vessel Documentation Center.

Last reported at 2018-Jun-19 19:27 UTC. Time now 2018-Jun-19 20:14 UTC.
Position N 44°05' W 068°57'.

Length 47 m.

Type: Passenger vessel. MMSI: 367519240.

Date/timePositionNaut miles runAvg speedWind from/ knotsBaromVisibWave heightAir tempDewpointWater temp
2018-Jun-19 19:27N 44°05' W 068°57'512.0
2018-Jun-19 19:00N 44°06' W 069°04'1 1.4
2018-Jun-19 18:08N 44°06' W 069°06'1 9.6
2018-Jun-19 17:59N 44°06' W 069°04'611.9
2018-Jun-19 17:30N 44°05' W 068°56'4 2.0
2018-Jun-19 15:33N 44°03' W 068°52'211.5
2018-Jun-19 15:22N 44°04' W 068°54'411.7
2018-Jun-19 15:00N 44°06' W 068°60'5 4.2
2018-Jun-19 13:55N 44°06' W 069°06'410.7
2018-Jun-19 13:30N 44°06' W 069°00'5 3.1
2018-Jun-19 11:58N 44°04' W 068°54'612.3
2018-Jun-19 11:30N 44°06' W 069°01'4 6.5
2018-Jun-19 10:56N 44°06' W 069°06'0 0.0
2018-Jun-18 21:40N 44°06' W 069°06'2 8.7
2018-Jun-18 21:30N 44°06' W 069°04'611.1
2018-Jun-18 21:00N 44°05' W 068°57'5 4.0
2018-Jun-18 19:51N 44°03' W 068°51'412.0
2018-Jun-18 19:30N 44°05' W 068°56'612.4
2018-Jun-18 19:00N 44°06' W 069°05'1 1.5
2018-Jun-18 18:09N 44°06' W 069°06'1 8.1
2018-Jun-18 17:58N 44°06' W 069°04'6 2.9
2018-Jun-18 15:43N 44°05' W 068°56'211.5
2018-Jun-18 15:30N 44°05' W 068°59'5 3.4
2018-Jun-18 13:57N 44°06' W 069°06'510.9
2018-Jun-18 13:31N 44°06' W 068°59'611.5
2018-Jun-18 13:00N 44°03' W 068°52'1 1.7
2018-Jun-18 12:14N 44°02' W 068°51'311.7
2018-Jun-18 12:00N 44°04' W 068°54'611.4
2018-Jun-18 11:30N 44°06' W 069°01'4 4.1
2018-Jun-18 10:36N 44°06' W 069°06'0 0.0
2018-Jun-17 21:40N 44°06' W 069°06'1 7.6
2018-Jun-17 21:30N 44°06' W 069°05'611.9
2018-Jun-17 21:00N 44°05' W 068°57'5 5.0
2018-Jun-17 19:59N 44°03' W 068°50'510.7
2018-Jun-17 19:29N 44°05' W 068°57'612.0
2018-Jun-17 19:00N 44°06' W 069°05'1 1.3
2018-Jun-17 18:12N 44°06' W 069°06'1 6.3
2018-Jun-17 17:59N 44°06' W 069°05'612.2
2018-Jun-17 17:29N 44°05' W 068°56'2 1.0
2018-Jun-17 15:24N 44°04' W 068°54'511.5
2018-Jun-17 15:00N 44°06' W 068°60'5 4.2
2018-Jun-17 13:53N 44°06' W 069°06'410.4
2018-Jun-17 13:29N 44°06' W 069°00'3 1.9
2018-Jun-17 11:44N 44°05' W 068°56'312.4
2018-Jun-17 11:30N 44°06' W 068°60'5 0.4
2018-Jun-16 21:39N 44°06' W 069°06'1 7.8
2018-Jun-16 21:30N 44°06' W 069°05'611.8
2018-Jun-16 20:59N 44°05' W 068°56'5 4.2
2018-Jun-16 19:49N 44°02' W 068°51'412.2
2018-Jun-16 19:27N 44°05' W 068°56'612.5
2018-Jun-16 18:59N 44°06' W 069°04'2 2.4
2018-Jun-16 18:13N 44°06' W 069°06'1 6.4
2018-Jun-16 17:59N 44°06' W 069°05'612.1
2018-Jun-16 17:30N 44°05' W 068°57'5 5.3
2018-Jun-16 16:34N 44°03' W 068°50'0 0.0
2018-Jun-16 16:21N 44°03' W 068°50'6 4.7
2018-Jun-16 15:09N 44°05' W 068°57'212.5
2018-Jun-16 15:00N 44°06' W 068°60'5 4.1
2018-Jun-16 13:51N 44°06' W 069°06'410.7
2018-Jun-16 13:30N 44°06' W 069°01'3 1.5
2018-Jun-16 11:43N 44°05' W 068°57'312.0
2018-Jun-16 11:29N 44°06' W 069°01'4 6.9
2018-Jun-16 10:53N 44°06' W 069°06'0 0.0
2018-Jun-16 09:46N 44°06' W 069°06'0 0.0
2018-Jun-16 09:25N 44°06' W 069°06'0 0.0
2018-Jun-16 08:54N 44°06' W 069°06'0 0.0
2018-Jun-16 08:30N 44°06' W 069°06'0 0.0
2018-Jun-16 07:59N 44°06' W 069°06'0 0.0
2018-Jun-16 07:30N 44°06' W 069°06'0 0.0
2018-Jun-16 06:58N 44°06' W 069°06'0 0.0
2018-Jun-16 06:30N 44°06' W 069°06'0 0.0
2018-Jun-16 05:58N 44°06' W 069°06'0 0.0
2018-Jun-16 05:30N 44°06' W 069°06'0 0.0
2018-Jun-16 04:57N 44°06' W 069°06'0 0.0
2018-Jun-16 04:29N 44°06' W 069°06'0 0.0
2018-Jun-16 03:59N 44°06' W 069°06'0 0.0
2018-Jun-16 03:28N 44°06' W 069°06'0 0.0
2018-Jun-16 02:59N 44°06' W 069°06'0 0.0
2018-Jun-16 02:28N 44°06' W 069°06'0 0.0
2018-Jun-16 01:49N 44°06' W 069°06'0 0.0
2018-Jun-16 01:29N 44°06' W 069°06'0 0.1
2018-Jun-15 21:39N 44°06' W 069°06'1 8.5
2018-Jun-15 21:31N 44°06' W 069°04'611.3
2018-Jun-15 20:58N 44°05' W 068°56'2 1.6
2018-Jun-15 19:50N 44°04' W 068°54'412.7
2018-Jun-15 19:30N 44°05' W 068°59'5 7.1
2018-Jun-15 18:47N 44°06' W 069°06'0 0.7
2018-Jun-15 18:30N 44°06' W 069°06'1 3.0
2018-Jun-15 18:00N 44°06' W 069°04'10 4.2
2018-Jun-15 15:36N 44°02' W 068°51'311.6
2018-Jun-15 15:22N 44°04' W 068°54'512.1
2018-Jun-15 15:00N 44°06' W 068°60'5 4.1
2018-Jun-15 13:50N 44°06' W 069°06'411.1
2018-Jun-15 13:29N 44°06' W 069°01'7 5.2
2018-Jun-15 12:08N 44°03' W 068°52'411.1
2018-Jun-15 11:47N 44°05' W 068°56'312.2
2018-Jun-15 11:31N 44°06' W 069°01'4 0.3
2018-Jun-14 21:34N 44°06' W 069°06'1 8.3
2018-Jun-14 21:30N 44°06' W 069°05'611.9
2018-Jun-14 20:58N 44°05' W 068°57'0 0.3
2018-Jun-14 19:29N 44°05' W 068°57'7 5.6
2018-Jun-14 18:18N 44°06' W 069°06'310.3
2018-Jun-14 18:00N 44°06' W 069°02'3 1.2
2018-Jun-14 15:14N 44°05' W 068°57'312.0
2018-Jun-14 15:00N 44°06' W 069°01'4 2.7
2018-Jun-14 13:32N 44°06' W 069°06'0 0.6
2018-Jun-14 13:30N 44°06' W 069°06'0 0.0
2018-Jun-14 12:58N 44°06' W 069°06'0 0.0
2018-Jun-13 21:39N 44°06' W 069°06'1 8.9
2018-Jun-13 21:29N 44°06' W 069°04'611.7
2018-Jun-13 21:00N 44°05' W 068°56'4 3.0
2018-Jun-13 19:45N 44°03' W 068°52'412.1
2018-Jun-13 19:24N 44°05' W 068°57'512.5
2018-Jun-13 19:00N 44°06' W 069°04'2 3.0
2018-Jun-13 18:20N 44°06' W 069°06'2 6.5
2018-Jun-13 18:00N 44°06' W 069°03'611.2
2018-Jun-13 17:28N 44°04' W 068°56'4 4.3
2018-Jun-13 16:30N 44°03' W 068°50'0 0.0
2018-Jun-13 15:40N 44°03' W 068°50'1 7.1
2018-Jun-13 15:30N 44°03' W 068°52'612.0
2018-Jun-13 15:00N 44°06' W 068°59'5 7.5
2018-Jun-13 14:18N 44°06' W 069°06'0 0.1
2018-Jun-13 13:58N 44°06' W 069°06'5 9.8
2018-Jun-13 13:30N 44°06' W 069°00'611.8
2018-Jun-13 13:00N 44°03' W 068°53'2 1.7
2018-Jun-13 12:06N 44°02' W 068°51'111.1
2018-Jun-13 12:00N 44°03' W 068°52'611.3
2018-Jun-13 11:29N 44°06' W 068°60'5 0.4
2018-Jun-12 21:42N 44°06' W 069°06'2 7.3
2018-Jun-12 21:29N 44°06' W 069°04'611.6
2018-Jun-12 21:00N 44°05' W 068°57'5 4.6
2018-Jun-12 19:54N 44°02' W 068°51'4 8.6
2018-Jun-12 19:27N 44°04' W 068°55'612.6
2018-Jun-12 19:00N 44°06' W 069°03'2 3.2
2018-Jun-12 18:14N 44°06' W 069°06'2 8.3
2018-Jun-12 17:59N 44°06' W 069°04'611.2
2018-Jun-12 17:29N 44°05' W 068°56'5 4.4
2018-Jun-12 16:27N 44°03' W 068°50'0 0.0
2018-Jun-12 15:59N 44°03' W 068°50'1 1.7
2018-Jun-12 15:31N 44°03' W 068°51'612.0
2018-Jun-12 15:00N 44°06' W 068°59'5 4.5
2018-Jun-12 13:51N 44°06' W 069°06'410.6
2018-Jun-12 13:29N 44°06' W 069°01'7 4.8
2018-Jun-12 12:01N 44°03' W 068°52'211.5
2018-Jun-12 11:51N 44°04' W 068°54'411.7
2018-Jun-12 11:30N 44°06' W 068°59'5 0.4
2018-Jun-11 21:36N 44°06' W 069°06'1 9.2
2018-Jun-11 21:30N 44°06' W 069°05'611.7
2018-Jun-11 21:00N 44°05' W 068°57'4 2.7
2018-Jun-11 19:41N 44°03' W 068°53'311.5
2018-Jun-11 19:26N 44°05' W 068°56'512.3
2018-Jun-11 19:00N 44°06' W 069°03'2 2.3
2018-Jun-11 18:08N 44°06' W 069°06'1 9.3
2018-Jun-11 18:00N 44°06' W 069°04'811.8
2018-Jun-11 17:20N 44°04' W 068°54'3 2.1
2018-Jun-11 15:59N 44°02' W 068°51'612.0
2018-Jun-11 15:30N 44°05' W 068°58'6 3.8
2018-Jun-11 13:56N 44°06' W 069°06'511.3
2018-Jun-11 13:30N 44°06' W 068°59'7 5.1
2018-Jun-11 12:10N 44°02' W 068°51'311.3
2018-Jun-11 11:55N 44°04' W 068°54'511.9
2018-Jun-11 11:29N 44°06' W 069°01'4 5.8
2018-Jun-11 10:46N 44°06' W 069°06'0 0.1
2018-Jun-11 10:29N 44°06' W 069°06'0 0.0
2018-Jun-10 21:36N 44°06' W 069°06'1 7.7
2018-Jun-10 21:30N 44°06' W 069°05'612.1
2018-Jun-10 21:00N 44°05' W 068°57'5 4.4
2018-Jun-10 19:50N 44°02' W 068°51'411.1
2018-Jun-10 19:30N 44°04' W 068°55'612.1
2018-Jun-10 18:58N 44°06' W 069°04'2 2.7
2018-Jun-10 18:14N 44°06' W 069°06'2 7.4
2018-Jun-10 18:00N 44°06' W 069°04'611.9
2018-Jun-10 17:30N 44°05' W 068°56'4 2.2
2018-Jun-10 15:33N 44°02' W 068°51'111.8
2018-Jun-10 15:30N 44°03' W 068°52'612.4
2018-Jun-10 14:59N 44°06' W 068°60'5 4.9
2018-Jun-10 13:58N 44°06' W 069°06'4 9.6
2018-Jun-10 13:30N 44°06' W 069°00'611.6
2018-Jun-10 12:58N 44°03' W 068°53'1 1.5
2018-Jun-10 12:03N 44°02' W 068°51'111.0
2018-Jun-10 11:59N 44°03' W 068°52'611.9
2018-Jun-10 11:29N 44°06' W 068°59'511.0
2018-Jun-10 11:00N 44°06' W 069°06'0 0.0
2018-Jun-09 21:49N 44°06' W 069°06'1 4.6
2018-Jun-09 21:30N 44°06' W 069°04'611.8
2018-Jun-09 21:00N 44°05' W 068°56'5 4.1
2018-Jun-09 19:49N 44°02' W 068°51'311.4
2018-Jun-09 19:30N 44°04' W 068°55'  
Track history (hours):
 
Tides and Currents Weather Stations Pressure Air Temp Water Temp Dewpoint Dewpoint Depression Visibility Wind Speed Wind Dir Waves Ship Positions

Capt E. Frank Thompson

Owner: Maine Dept. of Transportation/Ferry Service, Rockland, ME. More information available from US FCC via Universal Licensing System and Coast Guard Vessel Documentation Center.

Last reported at 2018-Jun-19 19:27 UTC. Time now 2018-Jun-19 20:14 UTC.
Position N 44°05' W 068°57'.

Length 47 m.

Type: Passenger vessel. MMSI: 367519240.

Date/timePositionNaut miles runAvg speedWind from/ knotsBaromVisibWave heightAir tempDewpointWater temp
2018-Jun-19 19:27N 44°05' W 068°57'512.0
2018-Jun-19 19:00N 44°06' W 069°04'1 1.4
2018-Jun-19 18:08N 44°06' W 069°06'1 9.6
2018-Jun-19 17:59N 44°06' W 069°04'611.9
2018-Jun-19 17:30N 44°05' W 068°56'4 2.0
2018-Jun-19 15:33N 44°03' W 068°52'211.5
2018-Jun-19 15:22N 44°04' W 068°54'411.7
2018-Jun-19 15:00N 44°06' W 068°60'5 4.2
2018-Jun-19 13:55N 44°06' W 069°06'410.7
2018-Jun-19 13:30N 44°06' W 069°00'5 3.1
2018-Jun-19 11:58N 44°04' W 068°54'612.3
2018-Jun-19 11:30N 44°06' W 069°01'4 6.5
2018-Jun-19 10:56N 44°06' W 069°06'0 0.0
2018-Jun-18 21:40N 44°06' W 069°06'2 8.7
2018-Jun-18 21:30N 44°06' W 069°04'611.1
2018-Jun-18 21:00N 44°05' W 068°57'5 4.0
2018-Jun-18 19:51N 44°03' W 068°51'412.0
2018-Jun-18 19:30N 44°05' W 068°56'612.4
2018-Jun-18 19:00N 44°06' W 069°05'1 1.5
2018-Jun-18 18:09N 44°06' W 069°06'1 8.1
2018-Jun-18 17:58N 44°06' W 069°04'6 2.9
2018-Jun-18 15:43N 44°05' W 068°56'211.5
2018-Jun-18 15:30N 44°05' W 068°59'5 3.4
2018-Jun-18 13:57N 44°06' W 069°06'510.9
2018-Jun-18 13:31N 44°06' W 068°59'611.5
2018-Jun-18 13:00N 44°03' W 068°52'1 1.7
2018-Jun-18 12:14N 44°02' W 068°51'311.7
2018-Jun-18 12:00N 44°04' W 068°54'611.4
2018-Jun-18 11:30N 44°06' W 069°01'4 4.1
2018-Jun-18 10:36N 44°06' W 069°06'0 0.0
2018-Jun-17 21:40N 44°06' W 069°06'1 7.6
2018-Jun-17 21:30N 44°06' W 069°05'611.9
2018-Jun-17 21:00N 44°05' W 068°57'5 5.0
2018-Jun-17 19:59N 44°03' W 068°50'510.7
2018-Jun-17 19:29N 44°05' W 068°57'612.0
2018-Jun-17 19:00N 44°06' W 069°05'1 1.3
2018-Jun-17 18:12N 44°06' W 069°06'1 6.3
2018-Jun-17 17:59N 44°06' W 069°05'612.2
2018-Jun-17 17:29N 44°05' W 068°56'2 1.0
2018-Jun-17 15:24N 44°04' W 068°54'511.5
2018-Jun-17 15:00N 44°06' W 068°60'5 4.2
2018-Jun-17 13:53N 44°06' W 069°06'410.4
2018-Jun-17 13:29N 44°06' W 069°00'3 1.9
2018-Jun-17 11:44N 44°05' W 068°56'312.4
2018-Jun-17 11:30N 44°06' W 068°60'5 0.4
2018-Jun-16 21:39N 44°06' W 069°06'1 7.8
2018-Jun-16 21:30N 44°06' W 069°05'611.8
2018-Jun-16 20:59N 44°05' W 068°56'5 4.2
2018-Jun-16 19:49N 44°02' W 068°51'412.2
2018-Jun-16 19:27N 44°05' W 068°56'612.5
2018-Jun-16 18:59N 44°06' W 069°04'2 2.4
2018-Jun-16 18:13N 44°06' W 069°06'1 6.4
2018-Jun-16 17:59N 44°06' W 069°05'612.1
2018-Jun-16 17:30N 44°05' W 068°57'5 5.3
2018-Jun-16 16:34N 44°03' W 068°50'0 0.0
2018-Jun-16 16:21N 44°03' W 068°50'6 4.7
2018-Jun-16 15:09N 44°05' W 068°57'212.5
2018-Jun-16 15:00N 44°06' W 068°60'5 4.1
2018-Jun-16 13:51N 44°06' W 069°06'410.7
2018-Jun-16 13:30N 44°06' W 069°01'3 1.5
2018-Jun-16 11:43N 44°05' W 068°57'312.0
2018-Jun-16 11:29N 44°06' W 069°01'4 6.9
2018-Jun-16 10:53N 44°06' W 069°06'0 0.0
2018-Jun-16 09:46N 44°06' W 069°06'0 0.0
2018-Jun-16 09:25N 44°06' W 069°06'0 0.0
2018-Jun-16 08:54N 44°06' W 069°06'0 0.0
2018-Jun-16 08:30N 44°06' W 069°06'0 0.0
2018-Jun-16 07:59N 44°06' W 069°06'0 0.0
2018-Jun-16 07:30N 44°06' W 069°06'0 0.0
2018-Jun-16 06:58N 44°06' W 069°06'0 0.0
2018-Jun-16 06:30N 44°06' W 069°06'0 0.0
2018-Jun-16 05:58N 44°06' W 069°06'0 0.0
2018-Jun-16 05:30N 44°06' W 069°06'0 0.0
2018-Jun-16 04:57N 44°06' W 069°06'0 0.0
2018-Jun-16 04:29N 44°06' W 069°06'0 0.0
2018-Jun-16 03:59N 44°06' W 069°06'0 0.0
2018-Jun-16 03:28N 44°06' W 069°06'0 0.0
2018-Jun-16 02:59N 44°06' W 069°06'0 0.0
2018-Jun-16 02:28N 44°06' W 069°06'0 0.0
2018-Jun-16 01:49N 44°06' W 069°06'0 0.0
2018-Jun-16 01:29N 44°06' W 069°06'0 0.1
2018-Jun-15 21:39N 44°06' W 069°06'1 8.5
2018-Jun-15 21:31N 44°06' W 069°04'611.3
2018-Jun-15 20:58N 44°05' W 068°56'2 1.6
2018-Jun-15 19:50N 44°04' W 068°54'412.7
2018-Jun-15 19:30N 44°05' W 068°59'5 7.1
2018-Jun-15 18:47N 44°06' W 069°06'0 0.7
2018-Jun-15 18:30N 44°06' W 069°06'1 3.0
2018-Jun-15 18:00N 44°06' W 069°04'10 4.2
2018-Jun-15 15:36N 44°02' W 068°51'311.6
2018-Jun-15 15:22N 44°04' W 068°54'512.1
2018-Jun-15 15:00N 44°06' W 068°60'5 4.1
2018-Jun-15 13:50N 44°06' W 069°06'411.1
2018-Jun-15 13:29N 44°06' W 069°01'7 5.2
2018-Jun-15 12:08N 44°03' W 068°52'411.1
2018-Jun-15 11:47N 44°05' W 068°56'312.2
2018-Jun-15 11:31N 44°06' W 069°01'4 0.3
2018-Jun-14 21:34N 44°06' W 069°06'1 8.3
2018-Jun-14 21:30N 44°06' W 069°05'611.9
2018-Jun-14 20:58N 44°05' W 068°57'0 0.3
2018-Jun-14 19:29N 44°05' W 068°57'7 5.6
2018-Jun-14 18:18N 44°06' W 069°06'310.3
2018-Jun-14 18:00N 44°06' W 069°02'3 1.2
2018-Jun-14 15:14N 44°05' W 068°57'312.0
2018-Jun-14 15:00N 44°06' W 069°01'4 2.7
2018-Jun-14 13:32N 44°06' W 069°06'0 0.6
2018-Jun-14 13:30N 44°06' W 069°06'0 0.0
2018-Jun-14 12:58N 44°06' W 069°06'0 0.0
2018-Jun-13 21:39N 44°06' W 069°06'1 8.9
2018-Jun-13 21:29N 44°06' W 069°04'611.7
2018-Jun-13 21:00N 44°05' W 068°56'4 3.0
2018-Jun-13 19:45N 44°03' W 068°52'412.1
2018-Jun-13 19:24N 44°05' W 068°57'512.5
2018-Jun-13 19:00N 44°06' W 069°04'2 3.0
2018-Jun-13 18:20N 44°06' W 069°06'2 6.5
2018-Jun-13 18:00N 44°06' W 069°03'611.2
2018-Jun-13 17:28N 44°04' W 068°56'4 4.3
2018-Jun-13 16:30N 44°03' W 068°50'0 0.0
2018-Jun-13 15:40N 44°03' W 068°50'1 7.1
2018-Jun-13 15:30N 44°03' W 068°52'612.0
2018-Jun-13 15:00N 44°06' W 068°59'5 7.5
2018-Jun-13 14:18N 44°06' W 069°06'0 0.1
2018-Jun-13 13:58N 44°06' W 069°06'5 9.8
2018-Jun-13 13:30N 44°06' W 069°00'611.8
2018-Jun-13 13:00N 44°03' W 068°53'2 1.7
2018-Jun-13 12:06N 44°02' W 068°51'111.1
2018-Jun-13 12:00N 44°03' W 068°52'611.3
2018-Jun-13 11:29N 44°06' W 068°60'5 0.4
2018-Jun-12 21:42N 44°06' W 069°06'2 7.3
2018-Jun-12 21:29N 44°06' W 069°04'611.6
2018-Jun-12 21:00N 44°05' W 068°57'5 4.6
2018-Jun-12 19:54N 44°02' W 068°51'4 8.6
2018-Jun-12 19:27N 44°04' W 068°55'612.6
2018-Jun-12 19:00N 44°06' W 069°03'2 3.2
2018-Jun-12 18:14N 44°06' W 069°06'2 8.3
2018-Jun-12 17:59N 44°06' W 069°04'611.2
2018-Jun-12 17:29N 44°05' W 068°56'5 4.4
2018-Jun-12 16:27N 44°03' W 068°50'0 0.0
2018-Jun-12 15:59N 44°03' W 068°50'1 1.7
2018-Jun-12 15:31N 44°03' W 068°51'612.0
2018-Jun-12 15:00N 44°06' W 068°59'5 4.5
2018-Jun-12 13:51N 44°06' W 069°06'410.6
2018-Jun-12 13:29N 44°06' W 069°01'7 4.8
2018-Jun-12 12:01N 44°03' W 068°52'211.5
2018-Jun-12 11:51N 44°04' W 068°54'411.7
2018-Jun-12 11:30N 44°06' W 068°59'5 0.4
2018-Jun-11 21:36N 44°06' W 069°06'1 9.2
2018-Jun-11 21:30N 44°06' W 069°05'611.7
2018-Jun-11 21:00N 44°05' W 068°57'4 2.7
2018-Jun-11 19:41N 44°03' W 068°53'311.5
2018-Jun-11 19:26N 44°05' W 068°56'512.3
2018-Jun-11 19:00N 44°06' W 069°03'2 2.3
2018-Jun-11 18:08N 44°06' W 069°06'1 9.3
2018-Jun-11 18:00N 44°06' W 069°04'811.8
2018-Jun-11 17:20N 44°04' W 068°54'3 2.1
2018-Jun-11 15:59N 44°02' W 068°51'612.0
2018-Jun-11 15:30N 44°05' W 068°58'6 3.8
2018-Jun-11 13:56N 44°06' W 069°06'511.3
2018-Jun-11 13:30N 44°06' W 068°59'7 5.1
2018-Jun-11 12:10N 44°02' W 068°51'311.3
2018-Jun-11 11:55N 44°04' W 068°54'511.9
2018-Jun-11 11:29N 44°06' W 069°01'4 5.8
2018-Jun-11 10:46N 44°06' W 069°06'0 0.1
2018-Jun-11 10:29N 44°06' W 069°06'0 0.0
2018-Jun-10 21:36N 44°06' W 069°06'1 7.7
2018-Jun-10 21:30N 44°06' W 069°05'612.1
2018-Jun-10 21:00N 44°05' W 068°57'5 4.4
2018-Jun-10 19:50N 44°02' W 068°51'411.1
2018-Jun-10 19:30N 44°04' W 068°55'612.1
2018-Jun-10 18:58N 44°06' W 069°04'2 2.7
2018-Jun-10 18:14N 44°06' W 069°06'2 7.4
2018-Jun-10 18:00N 44°06' W 069°04'611.9
2018-Jun-10 17:30N 44°05' W 068°56'4 2.2
2018-Jun-10 15:33N 44°02' W 068°51'111.8
2018-Jun-10 15:30N 44°03' W 068°52'612.4
2018-Jun-10 14:59N 44°06' W 068°60'5 4.9
2018-Jun-10 13:58N 44°06' W 069°06'4 9.6
2018-Jun-10 13:30N 44°06' W 069°00'611.6
2018-Jun-10 12:58N 44°03' W 068°53'1 1.5
2018-Jun-10 12:03N 44°02' W 068°51'111.0
2018-Jun-10 11:59N 44°03' W 068°52'611.9
2018-Jun-10 11:29N 44°06' W 068°59'511.0
2018-Jun-10 11:00N 44°06' W 069°06'0 0.0
2018-Jun-09 21:49N 44°06' W 069°06'1 4.6
2018-Jun-09 21:30N 44°06' W 069°04'611.8
2018-Jun-09 21:00N 44°05' W 068°56'5 4.1
2018-Jun-09 19:49N 44°02' W 068°51'311.4
2018-Jun-09 19:30N 44°04' W 068°55'  

Dump ship's entire track history